Rivermines, Missouri
Current Conditions -  °F | °C
As of 1:35 PM on Friday 21 Nov 2014 (Local Time) from KFAM Reporting Station
Overcast Overcast  
Wind Chill: 40°   Ceiling: 4500
Heat Index: 45°   Visibility: 10mi
Dew Point: 25°   Wind: 9mph
Humidity: 46%   Direction: 70°ENE
Pressure: 30.31"   Gusts: NA
Location:  37.8386°N, 90.5648°W
Report Text: KFAM 211935Z AUTO 07008KT 10SM OVC045 07/M04 A3031 RMK AO1
Loading
Personal Weather Stations






























Interactive Weather Map New forecast layout! Learn more

10-Day Weather Forecast

Advertisements
Track Severe Weather on mobile